Kezdőlap
METAR-TAF:

METAR-TAF

Repülőterek :

L.O. Simenstad Municipal Airport

Osceola, Wisconsin, Amerikai Egyesült Államok

földrajzi szélesség: 45-18-31N, földrajzi hosszúság: 092-41-24W, magasság: 275 m

Jelenlegi meteorológiai megfigyelések

A jelentés 13 perccel ezelõtt készült, 09:35 UTC
Északi szél 5 kt
Hőmérséklet 0°C
Páratartalom 100%
Légköri nyomás 1005 hPa
Látótávolság: 11.3 km
Borult 400 lábon

METAR: KOEO 090935Z AUTO 36005KT 7SM OVC004 00/00 A2967 RMK AO2 T00020002

Idő: 03:48 (09:48 UTC)


TAF: hiányzik

Meteorológiai megfigyelések és előrejelzések több, mint 4000 repülőtéren (METAR és TAF jelentéseket).

A térképen piros és sárga pontok jelzik az elérhető meteorológiai állomásokat.

Mozgassa az egeret a pont fölött, hogy megjelenjen az állomás neve.

Azután kattintson az időjárási megfigyelések és előrejelzések megtekintéséhez.

A térkép megváltoztatása: kattintson a fekete keresztel jelölt zöld gombra ráközelítéshez, a vonallal jelölt zöld gombra távolításhoz, vagy a zöld nyilakra a szomszédos térképek eléréséhez.


METAR-TAF: